Terminal Aerodrome Forecast
Issued by NWS Des Moines, IA

Home | Current Version | Previous Version | Text Only | Print | Product List | Glossary On
Versions: 1 2 3 4 5 6 7 8 9 10 11 12 13 14 15 16 17 18 19 20 21 22 23 24
000
FTUS43 KDMX 152327
TAFALO
TAF
KALO 152327Z 1600/1624 VRB03KT 6SM -RA BKN070 OVC090
     FM160300 11004KT P6SM VCTS OVC060CB
     FM160700 09004KT P6SM OVC025
     FM160800 06004KT 4SM BR OVC006
     FM161900 03005KT P6SM BKN018
     FM162200 36005KT P6SM BKN026=

USA.gov is the U.S. government's official web portal to all federal, state and local government web resources and services.